Time;durP1;ratioP1;P1;durP2;ratioP2;P2;SDS_P1;SDS_P2;PMS_P1;PMS_P2;Temp;Humidity;BMP_temperature;BMP_pressure;BME280_temperature;BME280_humidity;BME280_pressure;Samples;Min_cycle;Max_cycle;Signal;HPM_P1;HPM_P2
2024/03/13 00:00:04;;;;;;;37.03;17.35;;;;;;;10.78;78.03;98741.81;4980549;28;20057;-95
2024/03/13 00:02:34;;;;;;;35.72;16.75;;;;;;;10.62;78.15;98725.00;4974168;28;20117;-96
2024/03/13 00:05:00;;;;;;;37.65;18.73;;;;;;;10.62;78.49;98734.97;4980489;28;20038;-96
2024/03/13 00:07:26;;;;;;;40.33;19.85;;;;;;;10.58;79.37;98748.19;4975869;28;20038;-96
2024/03/13 00:09:53;;;;;;;41.67;20.33;;;;;;;10.55;79.24;98731.84;4978918;28;20034;-95
2024/03/13 00:12:19;;;;;;;44.47;21.65;;;;;;;10.47;79.37;98730.56;4990476;28;20053;-96
2024/03/13 00:14:53;;;;;;;37.72;20.02;;;;;;;10.46;79.53;98723.56;4979958;28;20026;-95
2024/03/13 00:17:20;;;;;;;40.25;20.35;;;;;;;10.53;79.86;98742.88;4973430;28;20508;-96
2024/03/13 00:19:46;;;;;;;38.58;17.88;;;;;;;10.41;79.81;98735.16;4979768;28;20023;-96
2024/03/13 00:22:18;;;;;;;38.17;19.45;;;;;;;10.43;80.02;98745.66;4973729;28;20485;-96
2024/03/13 00:24:46;;;;;;;45.45;19.73;;;;;;;10.42;79.94;98739.47;4979940;28;20034;-95
2024/03/13 00:27:12;;;;;;;38.22;20.63;;;;;;;10.31;80.16;98727.19;4972519;28;20120;-95
2024/03/13 00:29:40;;;;;;;38.38;19.33;;;;;;;10.34;80.17;98723.16;4979440;28;20022;-95
2024/03/13 00:32:07;;;;;;;36.78;18.80;;;;;;;10.45;79.80;98736.22;4979116;28;20523;-95
2024/03/13 00:34:32;;;;;;;39.58;19.88;;;;;;;10.51;79.20;98726.22;4979586;28;20049;-95
2024/03/13 00:36:58;;;;;;;36.17;19.05;;;;;;;10.56;79.39;98725.34;4979046;28;20528;-96
2024/03/13 00:39:24;;;;;;;34.08;18.05;;;;;;;10.45;79.69;98722.75;4974251;28;20026;-96
2024/03/13 00:41:50;;;;;;;41.42;18.80;;;;;;;10.53;79.87;98737.50;4980167;28;20050;-96
2024/03/13 00:44:15;;;;;;;33.05;18.13;;;;;;;10.58;79.69;98736.63;4973156;28;20034;-95
2024/03/13 00:46:41;;;;;;;35.28;17.42;;;;;;;10.56;79.62;98736.13;4984283;28;20034;-95
2024/03/13 00:49:09;;;;;;;32.90;17.55;;;;;;;10.57;79.82;98725.06;4975156;28;20037;-95
2024/03/13 00:51:39;;;;;;;32.30;17.00;;;;;;;10.51;79.71;98718.94;4982334;28;20034;-96
2024/03/13 00:54:05;;;;;;;30.15;17.70;;;;;;;10.49;79.91;98712.22;4983475;28;20496;-95
2024/03/13 00:56:32;;;;;;;40.47;19.63;;;;;;;10.37;79.49;98698.34;4982382;28;20065;-96
2024/03/13 00:58:58;;;;;;;36.75;18.60;;;;;;;10.35;80.18;98716.66;4983631;28;20030;-95
2024/03/13 01:01:24;;;;;;;32.83;18.85;;;;;;;10.36;80.42;98726.34;4978864;28;20049;-95
2024/03/13 01:03:50;;;;;;;42.75;19.83;;;;;;;10.37;80.67;98736.81;4983371;28;20504;-96
2024/03/13 01:06:17;;;;;;;39.15;19.55;;;;;;;10.22;81.16;98718.09;4977292;28;20031;-95
2024/03/13 01:08:44;;;;;;;40.53;18.27;;;;;;;10.01;81.71;98712.09;4983299;28;20049;-96
2024/03/13 01:11:10;;;;;;;40.15;20.25;;;;;;;10.04;81.75;98727.66;4975609;28;20476;-95
2024/03/13 01:13:37;;;;;;;35.85;19.13;;;;;;;9.97;81.80;98721.78;4983225;28;20114;-96
2024/03/13 01:16:07;;;;;;;36.72;19.50;;;;;;;10.07;82.10;98741.34;4982471;28;20504;-94
2024/03/13 01:18:33;;;;;;;40.25;19.67;;;;;;;10.10;81.98;98745.34;4994837;28;20377;-94
2024/03/13 01:20:59;;;;;;;42.63;19.63;;;;;;;9.79;82.10;98701.75;4999496;28;20022;-94
2024/03/13 01:23:25;;;;;;;40.00;20.15;;;;;;;9.91;82.19;98718.31;4976364;28;20081;-96
2024/03/13 01:25:53;;;;;;;38.42;19.92;;;;;;;9.88;82.19;98713.53;4983153;28;20025;-93
2024/03/13 01:28:21;;;;;;;40.50;19.52;;;;;;;9.84;82.53;98717.84;4977407;28;20026;-94
2024/03/13 01:30:49;;;;;;;42.38;20.65;;;;;;;9.88;82.48;98717.00;4981734;28;20026;-94
2024/03/13 01:33:14;;;;;;;40.03;19.85;;;;;;;9.94;82.30;98741.16;4992443;28;20034;-95
2024/03/13 01:35:40;;;;;;;41.35;19.63;;;;;;;9.77;82.51;98710.09;4983023;28;20029;-94
2024/03/13 01:38:05;;;;;;;43.63;20.95;;;;;;;9.71;82.32;98711.19;4974427;28;20453;-96
2024/03/13 02:03:16;;;;;;;43.20;19.27;;;;;;;9.90;82.86;98724.81;4998377;28;20082;-95
2024/03/13 02:06:29;;;;;;;42.88;19.40;;;;;;;9.97;82.83;98729.88;4978557;28;20030;-96
2024/03/13 02:08:57;;;;;;;40.45;18.63;;;;;;;9.90;82.54;98705.97;4997441;28;20034;-94
2024/03/13 02:11:23;;;;;;;42.03;19.13;;;;;;;10.03;82.53;98731.44;4975753;28;20034;-96
2024/03/13 02:13:51;;;;;;;39.60;19.25;;;;;;;9.87;82.55;98710.00;4981745;28;20496;-94
2024/03/13 02:16:16;;;;;;;38.47;19.67;;;;;;;9.93;82.60;98720.75;4975768;28;20033;-95
2024/03/13 02:18:42;;;;;;;40.80;19.42;;;;;;;9.77;82.59;98699.31;4980838;28;20476;-95
2024/03/13 02:21:07;;;;;;;42.75;20.33;;;;;;;9.83;82.88;98702.78;4989936;28;20034;-95
2024/03/13 02:23:33;;;;;;;38.80;18.48;;;;;;;9.83;82.44;98702.78;4998030;28;20018;-95
2024/03/13 02:26:00;;;;;;;41.35;19.17;;;;;;;9.85;82.56;98706.81;4981805;28;20018;-95
2024/03/13 02:28:32;;;;;;;36.47;18.05;;;;;;;9.90;82.08;98700.59;4976841;28;20026;-94
2024/03/13 02:30:57;;;;;;;39.45;18.90;;;;;;;9.80;82.28;98681.84;4980234;28;20026;-95
2024/03/13 02:33:23;;;;;;;35.90;17.83;;;;;;;10.04;82.05;98722.25;4975820;28;20062;-95
2024/03/13 02:35:48;;;;;;;34.20;18.42;;;;;;;9.95;81.67;98691.69;4996648;28;20033;-96
2024/03/13 02:38:15;;;;;;;37.30;18.10;;;;;;;10.14;81.36;98705.25;4990656;28;20029;-95
2024/03/13 02:40:41;;;;;;;44.53;19.02;;;;;;;10.13;81.31;98707.16;4981022;28;20042;-95
2024/03/13 02:43:06;;;;;;;38.28;18.13;;;;;;;10.18;81.79;98703.59;4973910;28;20029;-95
2024/03/13 02:45:32;;;;;;;41.58;17.85;;;;;;;10.15;81.80;98714.91;4981644;28;20027;-96
2024/03/13 02:47:58;;;;;;;37.42;19.40;;;;;;;10.09;82.14;98704.22;4981310;28;20034;-95
2024/03/13 02:50:24;;;;;;;36.78;18.02;;;;;;;10.04;82.36;98709.63;4974804;28;20076;-94
2024/03/13 02:52:49;;;;;;;39.78;18.77;;;;;;;10.04;82.15;98706.13;4997249;28;20018;-95
2024/03/13 02:55:15;;;;;;;46.70;20.05;;;;;;;9.96;82.25;98699.50;4973481;28;20033;-94
2024/03/13 02:57:40;;;;;;;39.10;18.00;;;;;;;10.02;82.72;98710.97;4979949;28;20023;-94
2024/03/13 03:00:07;;;;;;;45.55;20.17;;;;;;;10.08;82.82;98720.63;4973948;28;20029;-94
2024/03/13 03:02:40;;;;;;;36.30;18.90;;;;;;;10.05;82.68;98708.53;4979949;28;20563;-95
2024/03/13 03:05:06;;;;;;;39.88;18.30;;;;;;;9.94;82.25;98698.97;4981055;28;20501;-94
2024/03/13 03:07:32;;;;;;;38.90;17.67;;;;;;;10.02;82.21;98713.66;4980022;28;20032;-94
2024/03/13 03:09:58;;;;;;;37.45;18.08;;;;;;;9.95;82.30;98707.81;4979467;28;20054;-95
2024/03/13 03:12:24;;;;;;;34.60;18.75;;;;;;;9.99;82.51;98701.59;4975430;28;20112;-94
2024/03/13 03:14:49;;;;;;;37.10;18.90;;;;;;;10.00;82.48;98719.34;4980665;28;20034;-95
2024/03/13 03:17:16;;;;;;;35.05;18.90;;;;;;;10.13;81.75;98715.22;4973646;28;20125;-95
2024/03/13 03:19:42;;;;;;;39.75;18.60;;;;;;;10.09;81.60;98706.09;4980757;28;20026;-94
2024/03/13 03:22:09;;;;;;;35.38;17.88;;;;;;;10.14;81.62;98713.31;4971789;28;20025;-94
2024/03/13 03:24:34;;;;;;;36.10;17.50;;;;;;;10.11;81.45;98710.09;4996845;28;20092;-96
2024/03/13 03:27:00;;;;;;;36.83;17.55;;;;;;;10.07;81.70;98706.38;4980538;28;20492;-93
2024/03/13 03:29:28;;;;;;;36.72;18.15;;;;;;;10.25;81.28;98712.97;4974428;28;20034;-94
2024/03/13 03:31:54;;;;;;;36.53;17.42;;;;;;;10.17;80.69;98701.97;4998102;28;20065;-94
2024/03/13 03:34:20;;;;;;;36.67;17.13;;;;;;;10.28;81.27;98720.47;4974413;28;20496;-95
2024/03/13 03:36:46;;;;;;;30.25;16.55;;;;;;;10.17;80.90;98700.13;4979953;28;20032;-95
2024/03/13 03:39:14;;;;;;;26.02;15.45;;;;;;;10.20;81.00;98701.44;4973807;28;20094;-95
2024/03/13 03:41:41;;;;;;;33.50;16.88;;;;;;;10.05;81.38;98683.53;4979869;28;20054;-94
2024/03/13 03:44:11;;;;;;;35.45;17.90;;;;;;;9.96;81.78;98680.66;4972891;28;20026;-94
2024/03/13 03:46:40;;;;;;;32.22;15.93;;;;;;;10.02;82.59;98717.19;4980313;28;20030;-95
2024/03/13 03:49:06;;;;;;;35.67;17.13;;;;;;;9.88;81.99;98694.69;4980203;28;20065;-95
2024/03/13 03:51:34;;;;;;;31.85;17.08;;;;;;;9.84;82.38;98690.97;4979962;28;20026;-93
2024/03/13 03:54:03;;;;;;;34.60;16.85;;;;;;;10.03;82.47;98712.59;4980512;28;20034;-95
2024/03/13 03:56:28;;;;;;;36.13;17.52;;;;;;;10.01;83.27;98720.16;4975301;28;20030;-95
2024/03/13 03:58:54;;;;;;;34.78;17.58;;;;;;;10.03;82.58;98717.97;4996301;28;20042;-95
2024/03/13 04:01:21;;;;;;;35.38;17.90;;;;;;;9.95;81.97;98708.63;4990108;28;20026;-96
2024/03/13 04:03:47;;;;;;;38.20;18.30;;;;;;;9.93;82.84;98715.38;4979699;28;20499;-95
2024/03/13 04:06:19;;;;;;;40.47;18.92;;;;;;;9.71;83.49;98711.19;4972736;28;20034;-96
2024/03/13 04:08:45;;;;;;;37.03;18.23;;;;;;;9.73;82.18;98689.41;4980788;28;20077;-96
2024/03/13 04:11:13;;;;;;;33.75;16.95;;;;;;;9.63;82.88;98696.47;4972366;28;20042;-95
2024/03/13 04:13:46;;;;;;;35.10;16.55;;;;;;;9.51;83.03;98691.44;4980744;28;20026;-94
2024/03/13 04:16:13;;;;;;;29.77;15.20;;;;;;;9.70;82.61;98715.78;4979473;28;20030;-95
2024/03/13 04:18:39;;;;;;;19.65;10.52;;;;;;;9.66;82.09;98709.34;4980708;28;20030;-95
2024/03/13 04:21:04;;;;;;;12.93;7.10;;;;;;;9.76;80.39;98708.50;4983914;28;20029;-96
2024/03/13 04:23:30;;;;;;;12.05;6.03;;;;;;;9.70;79.51;98701.53;4983153;28;20069;-95
2024/03/13 04:25:56;;;;;;;8.73;5.57;;;;;;;9.88;78.08;98725.06;4984298;28;20026;-96
2024/03/13 04:28:22;;;;;;;8.45;4.72;;;;;;;9.84;75.70;98699.84;4982784;28;20053;-95
2024/03/13 04:30:48;;;;;;;4.28;3.22;;;;;;;10.02;73.96;98725.25;4983138;28;20046;-95
2024/03/13 04:33:16;;;;;;;5.47;3.50;;;;;;;9.88;73.90;98706.25;4977988;28;20026;-95
2024/03/13 04:35:45;;;;;;;5.90;3.30;;;;;;;9.96;74.28;98720.16;4984964;28;20030;-96
2024/03/13 04:38:13;;;;;;;5.28;3.13;;;;;;;10.09;73.14;98735.69;4984692;28;20443;-95
2024/03/13 04:40:39;;;;;;;4.25;2.95;;;;;;;10.04;73.34;98724.94;4981246;28;20512;-94
2024/03/13 04:43:10;;;;;;;4.60;3.08;;;;;;;9.99;73.20;98719.63;4984056;28;20526;-95
2024/03/13 04:45:36;;;;;;;3.60;2.97;;;;;;;10.07;71.63;98729.78;4984454;28;20027;-94
2024/03/13 04:48:03;;;;;;;4.60;3.40;;;;;;;10.15;72.65;98741.81;4984172;28;20034;-94
2024/03/13 04:50:30;;;;;;;5.65;3.50;;;;;;;10.20;72.44;98756.03;4980903;28;20117;-96
2024/03/13 04:52:56;;;;;;;5.85;3.05;;;;;;;10.06;72.16;98731.66;4985426;28;20018;-96
2024/03/13 04:55:21;;;;;;;4.32;3.17;;;;;;;10.17;69.53;98745.84;4993792;28;20037;-95
2024/03/13 04:57:47;;;;;;;3.78;3.03;;;;;;;10.11;70.09;98728.16;4984831;28;20089;-95
2024/03/13 05:00:14;;;;;;;4.68;3.08;;;;;;;10.12;68.18;98730.53;4994430;28;20038;-95
2024/03/13 05:02:43;;;;;;;6.00;3.65;;;;;;;10.23;68.10;98733.13;4985757;28;20089;-95
2024/03/13 05:05:15;;;;;;;4.78;3.55;;;;;;;10.05;67.74;98721.19;4977464;28;20029;-95
2024/03/13 05:07:43;;;;;;;5.28;3.47;;;;;;;10.18;68.21;98722.44;4986680;28;20423;-96
2024/03/13 05:10:16;;;;;;;3.85;3.03;;;;;;;10.17;67.95;98718.13;4979155;28;20041;-96
2024/03/13 05:12:43;;;;;;;5.60;3.53;;;;;;;10.17;68.92;98718.13;4987093;28;20026;-95
2024/03/13 05:15:12;;;;;;;4.90;3.90;;;;;;;10.41;69.44;98758.59;4984688;28;20026;-96
2024/03/13 05:17:38;;;;;;;5.32;3.70;;;;;;;10.28;69.85;98743.88;5000737;28;20030;-94
2024/03/13 05:20:07;;;;;;;4.68;3.30;;;;;;;10.25;68.96;98723.72;4989088;28;20027;-95
2024/03/13 05:22:35;;;;;;;5.40;3.20;;;;;;;10.48;67.65;98746.44;4988058;28;20030;-96
2024/03/13 05:25:10;;;;;;;11.30;8.25;;;;;;;10.36;69.22;98732.53;4984865;28;20045;-96
2024/03/13 05:31:23;;;;;;;6.88;4.07;;;;;;;10.56;68.13;98757.66;4988131;28;20489;-94
2024/03/13 05:34:02;;;;;;;6.05;4.20;;;;;;;10.47;68.24;98730.56;4989179;28;20030;-96
2024/03/13 05:37:18;;;;;;;4.68;4.03;;;;;;;10.57;68.44;98729.66;4989595;28;20027;-96
2024/03/13 05:39:44;;;;;;;5.35;4.13;;;;;;;10.81;68.35;98764.69;4989105;28;20098;-93
2024/03/13 05:42:48;;;;;;;5.32;3.92;;;;;;;10.82;67.81;98763.59;4952877;29;20130;-96
2024/03/13 05:45:28;;;;;;;7.55;4.10;;;;;;;10.78;67.43;98752.59;4963978;29;20486;-95
2024/03/13 05:48:08;;;;;;;7.18;4.38;;;;;;;10.91;66.97;98760.00;4969324;28;20038;-96
2024/03/13 05:50:42;;;;;;;7.35;4.10;;;;;;;11.00;67.26;98770.97;4956858;28;20044;-96
2024/03/13 05:53:14;;;;;;;35.38;21.60;;;;;;;10.81;66.33;98737.75;4994740;28;20080;-95
2024/03/13 05:58:31;;;;;;;6.68;4.95;;;;;;;11.09;65.22;98763.84;5029554;23;20054;-95
2024/03/13 06:01:01;;;;;;;6.90;5.22;;;;;;;11.19;65.78;98771.00;4983957;28;20089;-93
2024/03/13 06:03:37;;;;;;;12.07;8.40;;;;;;;11.24;66.37;98780.94;4968358;28;20078;-92
2024/03/13 06:09:30;;;;;;;6.05;3.50;;;;;;;11.24;62.95;98765.56;4969495;28;20068;-90
2024/03/13 06:18:06;;;;;;;;;;;;;;;;;;;;;
2024/03/13 06:20:45;;;;;;;4.80;3.38;;;;;;;11.29;63.85;98781.69;4968887;28;20077;-96
2024/03/13 06:23:47;;;;;;;5.38;3.35;;;;;;;11.36;63.95;98792.09;4952203;29;20124;-95
2024/03/13 06:26:27;;;;;;;6.88;3.67;;;;;;;11.58;64.78;98813.16;4948580;29;20146;-96
2024/03/13 06:34:25;;;;;;;8.57;5.90;;;;;;;11.28;63.86;98801.63;4945095;29;20045;-95
2024/03/13 06:37:17;;;;;;;6.13;4.22;;;;;;;11.42;64.27;98822.50;4935182;29;20043;-96
2024/03/13 06:39:55;;;;;;;;;;;;;;;;;;;;;
2024/03/13 06:42:54;;;;;;;7.93;4.53;;;;;;;11.33;64.76;98804.28;4953773;29;20047;-94
2024/03/13 06:50:53;;;;;;;4.55;3.53;;;;;;;11.29;63.25;98818.63;5136713;23;20088;-96
2024/03/13 07:19:46;;;;;;;4.05;3.25;;;;;;;11.55;60.20;98823.69;5059698;28;20040;-94
2024/03/13 07:22:15;;;;;;;5.57;3.30;;;;;;;11.66;59.75;98836.78;5028395;28;20033;-96
2024/03/13 07:25:09;;;;;;;;;;;;;;;;;;;;;
2024/03/13 07:27:58;;;;;;;;;;;;;;;;;;;;;
2024/03/13 07:30:35;;;;;;;10.90;4.03;;;;;;;11.60;61.13;98826.31;5029965;28;20167;-94
2024/03/13 07:38:05;;;;;;;;;;;;;;;;;;;;;
2024/03/13 07:41:37;;;;;;;;;;;;;;;;;;;;;
2024/03/13 07:44:57;;;;;;;;;;;;;;;;;;;;;
2024/03/13 08:24:35;;;;;;;7.97;2.80;;;;;;;12.11;56.76;98822.97;4881538;29;20093;-91
2024/03/13 08:27:25;;;;;;;6.68;2.80;;;;;;;12.04;55.52;98819.88;4867398;29;20096;-94
2024/03/13 08:30:54;;;;;;;;;;;;;;;;;;;;;
2024/03/13 08:33:47;;;;;;;;;;;;;;;;;;;;;
2024/03/13 08:36:50;;;;;;;3.65;2.78;;;;;;;12.32;55.15;98815.38;4971174;28;20023;-95
2024/03/13 08:42:25;;;;;;;3.95;2.75;;;;;;;12.75;53.66;98828.75;4943193;29;20107;-94
2024/03/13 08:51:29;;;;;;;3.95;2.40;;;;;;;12.79;52.83;98801.94;4888309;29;20205;-93
2024/03/13 08:54:28;;;;;;;;;;;;;;;;;;;;;
2024/03/13 08:57:10;;;;;;;3.42;2.70;;;;;;;13.17;52.46;98815.31;4952106;29;20095;-95
2024/03/13 09:12:40;;;;;;;3.83;2.30;;;;;;;13.66;50.94;98836.28;3059152;23;20319;31
2024/03/13 09:16:31;;;;;;;3.92;2.03;;;;;;;13.89;51.28;98837.13;4915826;29;20119;-94
2024/03/13 09:18:41;;;;;;;5.68;3.95;;;;;;;13.86;49.73;98813.41;4902420;29;20037;-92
2024/03/13 09:21:16;;;;;;;4.38;2.17;;;;;;;13.89;49.20;98812.78;4873021;29;20027;-93
2024/03/13 09:23:42;;;;;;;3.70;2.70;;;;;;;14.09;48.73;98845.91;4874479;29;20029;-92
2024/03/13 09:26:22;;;;;;;;;;;;;;;;;;;;;
2024/03/13 09:39:36;;;;;;;2.80;1.60;;;;;;;14.42;48.05;98818.63;4828409;29;20037;-89
2024/03/13 09:42:40;;;;;;;2.10;1.60;;;;;;;14.35;47.88;98811.75;4814489;29;20030;-93
2024/03/13 09:45:47;;;;;;;1.95;1.50;;;;;;;14.28;48.61;98818.72;4820110;29;20133;-94
2024/03/13 09:51:53;;;;;;;4.70;1.70;;;;;;;14.23;48.75;98821.53;4876908;29;20039;-95
2024/03/13 10:04:32;;;;;;;2.83;1.83;;;;;;;14.14;49.23;98819.53;4868180;29;20048;-94
2024/03/13 10:06:59;;;;;;;3.15;2.00;;;;;;;14.12;49.12;98829.06;4851491;29;20025;-94
2024/03/13 10:09:28;;;;;;;2.92;2.17;;;;;;;13.92;50.45;98806.78;4851312;29;20042;-96
2024/03/13 10:15:57;;;;;;;;;;;;;;;14.21;49.08;98848.91;4862340;29;20093;-94
2024/03/13 10:18:52;;;;;;;5.05;1.80;;;;;;;14.18;49.80;98835.19;4872127;29;19927;-93
2024/03/13 10:35:18;;;;;;;4.80;1.63;;;;;;;14.76;47.89;98820.81;4770390;30;20483;-92
2024/03/13 10:38:01;;;;;;;3.55;1.70;;;;;;;14.77;46.83;98808.06;4754242;30;20062;-92
2024/03/13 10:44:16;;;;;;;3.83;1.92;;;;;;;14.82;46.58;98813.38;4839024;29;20037;-95
2024/03/13 10:47:08;;;;;;;2.42;1.60;;;;;;;14.80;46.34;98799.31;4854267;29;20042;-95
2024/03/13 10:49:40;;;;;;;3.53;1.90;;;;;;;14.80;46.56;98799.31;4840892;29;20029;-95
2024/03/13 10:52:14;;;;;;;2.05;1.80;;;;;;;15.00;45.84;98811.53;4834680;29;20042;-94
2024/03/13 10:54:55;;;;;;;;;;;;;;;;;;;;;
2024/03/13 10:57:26;;;;;;;;;;;;;;;15.36;45.69;98814.09;4854135;29;20089;-95
2024/03/13 11:03:40;;;;;;;5.00;2.10;;;;;;;15.41;44.89;98813.94;4901981;23;20154;-94
2024/03/13 11:12:08;;;;;;;3.28;2.20;;;;;;;15.49;44.82;98796.09;4954277;29;20052;-95
2024/03/13 11:14:39;;;;;;;7.95;2.70;;;;;;;15.39;45.46;98789.03;4932746;29;20030;-94
2024/03/13 11:17:06;;;;;;;3.55;2.50;;;;;;;15.42;44.54;98801.16;4927566;29;20039;-93
2024/03/13 11:23:57;;;;;;;7.82;2.28;;;;;;;15.19;45.56;98767.91;4872445;29;20029;-94
2024/03/13 11:27:07;;;;;;;3.25;1.95;;;;;;;15.16;46.49;98789.13;4817731;29;20042;-96
2024/03/13 11:29:54;;;;;;;5.82;1.98;;;;;;;15.10;46.30;98765.97;4874714;29;20033;-95
2024/03/13 11:33:06;;;;;;;5.30;2.22;;;;;;;15.25;44.71;98789.16;4850941;29;20029;-92
2024/03/13 11:35:37;;;;;;;2.92;1.85;;;;;;;15.02;45.21;98764.00;4948231;29;20035;-93
2024/03/13 11:38:05;;;;;;;3.17;1.77;;;;;;;15.01;45.40;98778.69;4916435;29;20039;-95
2024/03/13 11:40:34;;;;;;;14.32;10.82;;;;;;;15.01;45.70;98761.63;4923656;29;20035;-93
2024/03/13 11:43:25;;;;;;;18.92;8.25;;;;;;;15.25;46.12;98781.03;4940646;29;20031;-95
2024/03/13 11:45:50;;;;;;;4.45;1.70;;;;;;;14.94;45.19;98762.88;4928570;29;20031;-94
2024/03/13 11:48:23;;;;;;;3.28;1.65;;;;;;;15.08;45.74;98768.19;4904678;29;20035;-95
2024/03/13 11:51:00;;;;;;;6.00;2.13;;;;;;;15.18;45.55;98780.69;4904166;29;20063;-95
2024/03/13 11:53:31;;;;;;;5.38;2.15;;;;;;;15.07;45.59;98760.38;4919770;29;20058;-93
2024/03/13 11:55:59;;;;;;;6.40;2.13;;;;;;;15.11;45.85;98764.88;4919613;29;20032;-94
2024/03/13 11:58:31;;;;;;;3.30;1.95;;;;;;;15.01;45.23;98758.94;4920398;29;20038;-96
2024/03/13 12:01:01;;;;;;;4.55;2.00;;;;;;;15.12;45.17;98763.75;4921453;29;20026;-95
2024/03/13 12:03:48;;;;;;;3.53;2.07;;;;;;;15.26;44.82;98752.00;4909982;29;20490;-95
2024/03/13 12:06:20;;;;;;;6.32;2.42;;;;;;;15.28;46.03;98766.03;4911035;29;20036;-96
2024/03/13 12:08:47;;;;;;;4.15;2.50;;;;;;;15.18;45.93;98750.84;4933915;29;20031;-96
2024/03/13 12:11:25;;;;;;;3.25;2.05;;;;;;;15.31;44.01;98749.91;4930601;29;20023;-95
2024/03/13 12:13:54;;;;;;;5.60;2.60;;;;;;;15.46;45.76;98756.00;4914521;29;20031;-95
2024/03/13 12:16:47;;;;;;;3.95;2.00;;;;;;;15.54;44.29;98739.78;4920409;29;20138;-96
2024/03/13 12:19:15;;;;;;;4.70;2.15;;;;;;;15.51;44.80;98742.31;4938013;29;20043;-95
2024/03/13 12:21:43;;;;;;;5.30;2.13;;;;;;;15.52;43.41;98744.72;4918515;29;20026;-96
2024/03/13 12:24:21;;;;;;;5.18;2.45;;;;;;;15.80;44.25;98759.94;4919420;29;20036;-95
2024/03/13 12:26:52;;;;;;;8.48;2.70;;;;;;;15.80;43.81;98730.09;4922538;29;20559;-94
2024/03/13 12:29:26;;;;;;;;;;;;;;;15.94;44.00;98757.88;4905310;29;20031;-96
2024/03/13 12:31:59;;;;;;;8.43;2.20;;;;;;;15.82;42.99;98734.06;4906096;29;19969;-95
2024/03/13 12:34:28;;;;;;;6.25;1.70;;;;;;;15.90;42.17;98740.63;4916978;29;20110;-94
2024/03/13 12:36:56;;;;;;;2.53;2.00;;;;;;;15.78;41.91;98729.63;4893263;29;20030;-94
2024/03/13 12:39:31;;;;;;;10.55;2.35;;;;;;;15.86;42.40;98751.31;4912940;29;20028;-94
2024/03/13 12:42:04;;;;;;;6.47;2.28;;;;;;;15.61;43.83;98733.09;4922895;29;20015;-94
2024/03/13 12:45:05;;;;;;;6.15;2.35;;;;;;;15.67;42.88;98756.25;4918815;29;20047;-93
2024/03/13 12:47:38;;;;;;;7.75;2.30;;;;;;;15.49;43.81;98742.63;4848328;29;20086;-93
2024/03/13 12:50:09;;;;;;;3.30;2.00;;;;;;;15.24;43.41;98733.31;4875775;29;20055;-91
2024/03/13 12:52:45;;;;;;;4.72;2.47;;;;;;;15.14;44.75;98739.81;4915205;29;20054;-94
2024/03/13 12:55:12;;;;;;;3.00;2.20;;;;;;;15.07;44.38;98739.50;4902604;29;20030;-92
2024/03/13 12:57:40;;;;;;;3.15;2.10;;;;;;;15.05;44.55;98752.56;4943155;29;20044;-92
2024/03/13 13:00:19;;;;;;;4.40;2.08;;;;;;;15.02;45.26;98755.88;4935491;29;20015;-93
2024/03/13 13:03:14;;;;;;;5.95;2.58;;;;;;;14.90;45.55;98750.25;4927233;29;20040;-92
2024/03/13 13:06:41;;;;;;;;;;;;;;;;;;;;;
2024/03/13 13:17:26;;;;;;;3.38;2.08;;;;;;;15.27;44.54;98754.41;4833629;29;20145;-91
2024/03/13 13:20:08;;;;;;;;;;;;;;;;;;;;;
2024/03/13 13:22:58;;;;;;;3.67;1.90;;;;;;;15.31;43.92;98740.97;4871659;29;20123;-92
2024/03/13 13:25:26;;;;;;;10.85;2.60;;;;;;;15.36;45.22;98746.28;4878951;29;20036;-92
2024/03/13 13:27:57;;;;;;;5.10;2.45;;;;;;;15.49;44.63;98761.63;4870346;29;20024;-92
2024/03/13 13:30:33;;;;;;;3.22;2.33;;;;;;;15.37;43.49;98758.72;4875272;29;20052;-95
2024/03/13 13:33:50;;;;;;;;;;;;;;;;;;;;;
2024/03/13 13:36:36;;;;;;;3.33;2.10;;;;;;;14.97;45.03;98758.75;4914162;29;20119;-96
2024/03/13 13:39:05;;;;;;;3.78;2.00;;;;;;;14.81;44.99;98733.94;4874396;29;20033;-94
2024/03/13 13:41:30;;;;;;;5.00;2.67;;;;;;;14.75;44.79;98729.78;4881809;29;20028;-95
2024/03/13 13:44:03;;;;;;;106.78;60.25;;;;;;;14.68;45.96;98749.19;4892911;29;20031;-94
2024/03/13 13:46:37;;;;;;;32.53;18.33;;;;;;;14.72;45.94;98752.09;4906543;29;20467;-94
2024/03/13 13:52:40;;;;;;;;;;;;;;;14.56;46.45;98759.81;4899575;29;20071;-93
2024/03/13 13:55:44;;;;;;;5.25;3.00;;;;;;;14.57;46.27;98745.16;4890796;29;19915;-95
2024/03/13 13:58:16;;;;;;;3.42;2.22;;;;;;;14.54;45.81;98749.25;4849427;29;20109;-95
2024/03/13 14:01:21;;;;;;;3.88;1.90;;;;;;;14.63;46.05;98746.63;4836769;29;20034;-96
2024/03/13 14:03:50;;;;;;;3.55;2.00;;;;;;;14.62;46.03;98750.44;4892744;29;20045;-95
2024/03/13 14:14:06;;;;;;;;;;;;;;;;;;;;;
2024/03/13 14:16:36;;;;;;;10.55;3.67;;;;;;;14.64;44.66;98755.56;4804208;29;20110;-95
2024/03/13 14:19:12;;;;;;;2.33;1.50;;;;;;;14.61;44.24;98750.75;4796238;29;20051;-96
2024/03/13 14:21:39;;;;;;;1.80;1.45;;;;;;;14.77;44.47;98770.91;4814926;29;20035;-92
2024/03/13 14:24:08;;;;;;;3.70;1.92;;;;;;;14.72;44.72;98769.16;4824302;29;20442;-94
2024/03/13 14:26:34;;;;;;;2.63;2.03;;;;;;;14.62;45.28;98763.97;4850794;29;20039;-92
2024/03/13 14:29:01;;;;;;;2.63;1.90;;;;;;;14.35;46.18;98752.16;4879403;29;20036;-93
2024/03/13 14:31:36;;;;;;;6.50;2.20;;;;;;;14.51;46.58;98771.53;4883840;29;20080;-93
2024/03/13 14:34:06;;;;;;;2.83;1.90;;;;;;;14.18;46.01;98749.34;4860258;29;20045;-93
2024/03/13 14:36:34;;;;;;;3.38;2.25;;;;;;;14.17;45.89;98755.84;4859129;29;20020;-92
2024/03/13 14:39:03;;;;;;;3.30;2.20;;;;;;;14.28;46.17;98762.63;4881324;29;20167;-93
2024/03/13 14:41:41;;;;;;;3.42;2.28;;;;;;;14.38;46.19;98771.59;4913615;29;20025;-92
2024/03/13 14:44:10;;;;;;;2.88;1.83;;;;;;;14.46;45.93;98777.06;4936197;29;20046;-93
2024/03/13 14:46:40;;;;;;;6.35;3.25;;;;;;;14.41;46.19;98771.78;4940538;29;20027;-92
2024/03/13 14:49:08;;;;;;;8.25;4.90;;;;;;;14.40;45.80;98762.09;4905730;29;20462;-93
2024/03/13 14:51:34;;;;;;;3.72;2.78;;;;;;;14.46;46.55;98784.41;4933163;29;20027;-92
2024/03/13 14:57:27;;;;;;;;;;;;;;;14.33;46.95;98797.69;4921476;29;20027;-93
2024/03/13 14:59:55;;;;;;;5.20;2.35;;;;;;;14.13;47.30;98784.63;4934850;29;19921;-92
2024/03/13 15:02:24;;;;;;;3.80;2.45;;;;;;;13.94;47.74;98777.50;4938238;29;20038;-94
2024/03/13 15:05:14;;;;;;;3.28;2.33;;;;;;;13.90;47.69;98779.22;4948709;29;20039;-91
2024/03/13 15:11:08;;;;;;;10.13;3.38;;;;;;;13.78;48.62;98778.94;4951004;29;20082;-94
2024/03/13 15:17:24;;;;;;;6.05;3.40;;;;;;;13.71;48.49;98790.16;4885558;29;20149;-93
2024/03/13 15:19:59;;;;;;;5.93;3.40;;;;;;;13.71;48.82;98803.69;4869624;29;20068;-92
2024/03/13 15:23:13;;;;;;;;;;;;;;;;;;;;;
2024/03/13 15:25:45;;;;;;;5.18;3.03;;;;;;;13.58;48.77;98790.19;4850107;29;20518;-96
2024/03/13 15:28:49;;;;;;;4.93;3.40;;;;;;;13.68;49.32;98822.44;4843973;29;20461;-95
2024/03/13 15:31:17;;;;;;;4.35;3.25;;;;;;;13.53;49.18;98800.03;4838374;29;20049;-95
2024/03/13 15:33:46;;;;;;;4.40;3.30;;;;;;;13.42;49.56;98795.91;4837403;29;20054;-96
2024/03/13 15:36:17;;;;;;;7.70;3.25;;;;;;;13.69;48.84;98832.16;4878827;29;20126;-95
2024/03/13 15:38:45;;;;;;;11.05;5.65;;;;;;;13.53;48.97;98823.56;4895556;29;20024;-94
2024/03/13 15:42:18;;;;;;;;;;;;;;;;;;;;;
2024/03/13 15:48:40;;;;;;;;;;;;;;;;;;;;;
2024/03/13 15:51:08;;;;;;;6.05;3.88;;;;;;;13.32;49.96;98831.25;4855166;29;20128;-95
2024/03/13 15:53:41;;;;;;;9.02;5.20;;;;;;;13.08;51.14;98810.59;4899433;29;20036;-96
2024/03/13 15:56:19;;;;;;;4.15;2.88;;;;;;;13.21;50.32;98819.00;4896090;29;20056;-95
2024/03/13 15:58:53;;;;;;;6.43;2.80;;;;;;;13.13;50.28;98815.09;4897722;29;20032;-96
2024/03/13 16:02:04;;;;;;;;;;;;;;;;;;;;;
2024/03/13 16:21:02;;;;;;;12.70;6.60;;;;;;;12.94;50.62;98839.50;1368881;23;21886;-93
2024/03/13 16:23:31;;;;;;;8.85;5.28;;;;;;;12.91;50.92;98851.69;4924197;29;20062;-94
2024/03/13 16:26:00;;;;;;;11.48;5.05;;;;;;;12.98;51.17;98869.44;4919984;29;20087;-94
2024/03/13 16:28:26;;;;;;;5.72;4.03;;;;;;;13.06;50.30;98874.94;4936797;29;20019;-92
2024/03/13 16:31:06;;;;;;;7.10;3.70;;;;;;;12.92;51.22;98855.19;4923216;29;20075;-96
2024/03/13 16:33:33;;;;;;;7.68;4.13;;;;;;;13.05;50.90;98867.13;4934223;29;20047;-95
2024/03/13 16:35:59;;;;;;;5.57;4.40;;;;;;;12.92;51.82;98852.50;4918211;29;20028;-96